createdAt,value
2023-02-02T00:00:23.909Z,3.77
2023-02-02T00:11:03.008Z,3.75
2023-02-02T00:21:41.267Z,3.78
2023-02-02T00:26:59.743Z,3.79
2023-02-02T00:37:38.353Z,3.79
2023-02-02T00:42:57.601Z,3.78
2023-02-02T00:48:16.839Z,3.79
2023-02-02T00:53:36.169Z,3.79
2023-02-02T00:58:55.587Z,3.81
2023-02-02T01:04:14.896Z,3.81
2023-02-02T01:14:53.049Z,3.82
2023-02-02T01:20:12.139Z,3.79
2023-02-02T01:30:51.144Z,3.78
2023-02-02T01:46:48.339Z,3.77
2023-02-02T01:57:26.707Z,3.78
2023-02-02T02:02:46.552Z,3.77
2023-02-02T02:13:25.215Z,3.77
2023-02-02T02:29:22.679Z,3.77
2023-02-02T02:40:26.010Z,3.78
2023-02-02T02:45:45.147Z,3.77
2023-02-02T03:01:43.492Z,3.77
2023-02-02T03:12:22.166Z,3.75
2023-02-02T03:17:41.159Z,3.75
2023-02-02T03:28:20.121Z,3.77
2023-02-02T03:38:58.243Z,3.77
2023-02-02T03:44:17.780Z,3.74
2023-02-02T03:54:56.337Z,3.78
2023-02-02T04:00:15.534Z,3.77
2023-02-02T04:10:54.658Z,3.77
2023-02-02T04:26:52.459Z,3.79
2023-02-02T04:37:31.080Z,3.81
2023-02-02T04:42:50.563Z,3.81
2023-02-02T04:53:28.798Z,3.82
2023-02-02T04:58:48.458Z,3.84
2023-02-02T05:09:26.543Z,3.85
2023-02-02T05:20:04.965Z,3.85
2023-02-02T05:25:24.380Z,3.88
2023-02-02T05:30:43.334Z,3.86
2023-02-02T05:36:02.420Z,3.88
2023-02-02T05:41:21.587Z,3.89
2023-02-02T05:52:00.279Z,3.89
2023-02-02T06:07:58.041Z,3.89
2023-02-02T06:18:36.934Z,3.91
2023-02-02T06:23:56.639Z,3.94
2023-02-02T06:34:35.413Z,3.94
2023-02-02T06:45:13.594Z,3.94
2023-02-02T06:50:32.663Z,3.94
2023-02-02T07:01:11.294Z,3.95
2023-02-02T07:06:30.371Z,3.96
2023-02-02T07:17:09.787Z,3.96
2023-02-02T07:22:29.358Z,3.96
2023-02-02T07:38:27.595Z,4.03
2023-02-02T07:43:47.145Z,4.03
2023-02-02T07:54:25.757Z,4.05
2023-02-02T07:59:45.201Z,4.06
2023-02-02T08:10:23.034Z,4.1
2023-02-02T08:26:19.758Z,4.15
2023-02-02T08:36:58.389Z,4.19
2023-02-02T08:42:18.159Z,4.19
2023-02-02T08:52:57.113Z,4.21
2023-02-02T09:03:35.342Z,4.23
2023-02-02T09:08:54.983Z,4.3
2023-02-02T09:19:34.021Z,4.35
2023-02-02T09:24:53.004Z,4.38
2023-02-02T09:35:32.237Z,4.4
2023-02-02T09:40:51.575Z,4.42
2023-02-02T09:46:10.780Z,4.42
2023-02-02T09:51:29.832Z,4.48
2023-02-02T10:02:08.284Z,4.52
2023-02-02T10:07:27.672Z,4.54
2023-02-02T10:18:06.838Z,4.61
2023-02-02T10:23:25.949Z,4.67
2023-02-02T10:34:04.806Z,4.69
2023-02-02T10:50:02.985Z,4.73
2023-02-02T10:55:22.284Z,4.79
2023-02-02T11:00:41.076Z,4.83
2023-02-02T11:06:00.623Z,4.81
2023-02-02T11:16:43.443Z,4.91
2023-02-02T11:32:36.527Z,4.96
2023-02-02T11:43:14.519Z,5.01
2023-02-02T11:48:33.701Z,5.03
2023-02-02T11:59:12.383Z,5.07
2023-02-02T12:09:50.186Z,5.1
2023-02-02T12:15:09.847Z,5.07
2023-02-02T12:25:48.217Z,5.08
2023-02-02T12:31:07.418Z,5.08
2023-02-02T12:41:46.298Z,5.11
2023-02-02T12:57:44.009Z,5.14
2023-02-02T13:08:22.046Z,5.15
2023-02-02T13:13:41.739Z,5.14
2023-02-02T13:19:00.539Z,5.13
2023-02-02T13:24:19.627Z,5.15
2023-02-02T13:29:44.309Z,5.15
2023-02-02T13:40:17.784Z,5.15
2023-02-02T13:50:56.450Z,5.17
2023-02-02T13:56:15.344Z,5.17
2023-02-02T14:06:55.380Z,5.17
2023-02-02T14:12:14.565Z,5.15
2023-02-02T14:17:33.177Z,5.17
2023-02-02T14:33:30.208Z,5.15
2023-02-02T14:44:09.168Z,5.14
2023-02-02T14:49:28.050Z,5.17
2023-02-02T15:00:05.980Z,5.14
2023-02-02T15:10:43.698Z,5.13
2023-02-02T15:16:02.834Z,5.11
2023-02-02T15:26:40.564Z,5.13
2023-02-02T15:31:59.999Z,5.13
2023-02-02T15:42:37.990Z,5.1
2023-02-02T15:58:36.365Z,5.1
2023-02-02T16:09:14.910Z,5.07
2023-02-02T16:14:34.554Z,5.07
2023-02-02T16:25:21.607Z,5.04
2023-02-02T16:30:31.820Z,5.05
2023-02-02T16:41:10.411Z,5
2023-02-02T16:51:48.872Z,5.03
2023-02-02T16:57:07.615Z,5
2023-02-02T17:07:46.488Z,5.01
2023-02-02T17:23:44.745Z,4.96
2023-02-02T17:34:23.444Z,4.98
2023-02-02T17:39:42.913Z,4.98
2023-02-02T17:50:21.702Z,4.94
2023-02-02T17:55:40.588Z,4.92
2023-02-02T18:06:19.826Z,4.92
2023-02-02T18:16:58.231Z,4.92
2023-02-02T18:22:17.142Z,4.91
2023-02-02T18:32:55.738Z,4.87
2023-02-02T18:38:14.808Z,4.87
2023-02-02T18:48:52.933Z,4.85
2023-02-02T18:59:31.786Z,4.84
2023-02-02T19:04:50.995Z,4.85
2023-02-02T19:15:29.870Z,4.84
2023-02-02T19:20:49.048Z,4.84
2023-02-02T19:31:26.838Z,4.84
2023-02-02T19:36:46.511Z,4.83
2023-02-02T19:42:06.087Z,4.81
2023-02-02T19:47:25.308Z,4.8
2023-02-02T19:58:03.532Z,4.8
2023-02-02T20:03:22.793Z,4.81
2023-02-02T20:14:01.924Z,4.8
2023-02-02T20:25:05.168Z,4.79
2023-02-02T20:31:39.399Z,4.79
2023-02-02T20:35:53.987Z,4.76
2023-02-02T20:46:21.633Z,4.77
2023-02-02T20:51:40.937Z,4.77
2023-02-02T21:07:38.622Z,4.73
2023-02-02T21:12:58.075Z,4.73
2023-02-02T21:18:17.934Z,4.73
2023-02-02T21:23:36.339Z,4.73
2023-02-02T21:34:15.521Z,4.69
2023-02-02T21:39:34.336Z,4.71
2023-02-02T21:50:12.899Z,4.69
2023-02-02T21:55:32.678Z,4.69
2023-02-02T22:06:10.130Z,4.69
2023-02-02T22:11:29.561Z,4.67
2023-02-02T22:22:08.718Z,4.67
2023-02-02T22:27:28.202Z,4.67
2023-02-02T22:32:47.174Z,4.66
2023-02-02T22:38:06.434Z,4.69
2023-02-02T22:48:44.865Z,4.66
2023-02-02T22:54:04.051Z,4.66
2023-02-02T22:59:23.921Z,4.66
2023-02-02T23:04:43.162Z,4.67
2023-02-02T23:15:22.161Z,4.66
2023-02-02T23:20:41.677Z,4.66
2023-02-02T23:32:35.682Z,4.67
2023-02-02T23:36:39.427Z,4.66
2023-02-02T23:47:17.545Z,4.66
2023-02-02T23:57:55.962Z,4.69
